createdAt,value
2023-03-05T00:01:38.837Z,97.74
2023-03-05T00:06:41.889Z,98.18
2023-03-05T00:11:43.831Z,98.48
2023-03-05T00:16:45.519Z,98.83
2023-03-05T00:21:48.574Z,99.32
2023-03-05T00:26:50.417Z,99.80
2023-03-05T00:31:52.189Z,99.71
2023-03-05T00:36:55.513Z,99.62
2023-03-05T00:41:57.187Z,98.95
2023-03-05T00:46:58.892Z,98.45
2023-03-05T00:52:01.995Z,98.49
2023-03-05T00:57:05.713Z,98.76
2023-03-05T01:02:07.449Z,98.34
2023-03-05T01:07:10.539Z,98.13
2023-03-05T01:12:12.980Z,98.08
2023-03-05T01:17:14.674Z,97.57
2023-03-05T01:22:17.924Z,97.60
2023-03-05T01:27:19.602Z,97.46
2023-03-05T01:32:21.353Z,97.78
2023-03-05T01:37:24.409Z,97.75
2023-03-05T01:42:26.078Z,97.83
2023-03-05T01:47:27.896Z,97.50
2023-03-05T01:52:31.339Z,97.76
2023-03-05T01:57:34.125Z,98.09
2023-03-05T02:02:35.848Z,97.62
2023-03-05T02:07:40.096Z,97.68
2023-03-05T02:12:41.872Z,97.81
2023-03-05T02:17:43.582Z,97.94
2023-03-05T02:22:46.613Z,97.81
2023-03-05T02:27:52.290Z,98.29
2023-03-05T02:32:54.055Z,97.83
2023-03-05T02:37:57.686Z,97.72
2023-03-05T02:42:59.444Z,97.41
2023-03-05T02:48:02.275Z,98.07
2023-03-05T02:53:05.503Z,98.44
2023-03-05T02:58:07.365Z,98.79
2023-03-05T03:03:09.408Z,99.42
2023-03-05T03:08:13.026Z,99.58
2023-03-05T03:13:14.708Z,99.88
2023-03-05T03:18:16.460Z,99.88
2023-03-05T03:23:19.530Z,99.64
2023-03-05T03:28:21.234Z,99.76
2023-03-05T03:33:22.923Z,100.00
2023-03-05T03:38:26.130Z,100.00
2023-03-05T03:43:27.833Z,100.00
2023-03-05T03:48:29.654Z,100.00
2023-03-05T03:53:32.733Z,100.00
2023-03-05T03:58:34.406Z,100.00
2023-03-05T04:03:36.093Z,100.00
2023-03-05T04:08:39.129Z,100.00
2023-03-05T04:13:40.805Z,100.00
2023-03-05T04:18:42.712Z,100.00
2023-03-05T04:23:45.688Z,100.00
2023-03-05T04:28:48.302Z,100.00
2023-03-05T04:33:50.122Z,100.00
2023-03-05T04:38:53.231Z,100.00
2023-03-05T04:43:54.965Z,100.00
2023-03-05T04:48:57.417Z,100.00
2023-03-05T04:54:00.479Z,100.00
2023-03-05T04:59:02.236Z,100.00
2023-03-05T05:04:03.949Z,100.00
2023-03-05T05:09:06.983Z,100.00
2023-03-05T05:14:08.724Z,100.00
2023-03-05T05:19:10.589Z,100.00
2023-03-05T05:24:14.796Z,100.00
2023-03-05T05:29:16.505Z,100.00
2023-03-05T05:34:18.214Z,100.00
2023-03-05T05:39:21.269Z,100.00
2023-03-05T05:44:22.950Z,100.00
2023-03-05T05:49:24.769Z,100.00
2023-03-05T05:54:27.802Z,100.00
2023-03-05T05:59:29.697Z,100.00
2023-03-05T06:04:31.401Z,100.00
2023-03-05T06:09:36.338Z,100.00
2023-03-05T06:14:38.067Z,100.00
2023-03-05T06:19:39.741Z,100.00
2023-03-05T06:24:42.782Z,100.00
2023-03-05T06:29:44.531Z,100.00
2023-03-05T06:34:46.222Z,100.00
2023-03-05T06:39:49.309Z,100.00
2023-03-05T06:44:50.988Z,100.00
2023-03-05T06:49:52.708Z,100.00
2023-03-05T06:54:55.858Z,100.00
2023-03-05T06:59:57.525Z,100.00
2023-03-05T07:04:59.181Z,100.00
2023-03-05T07:10:02.301Z,100.00
2023-03-05T07:15:04.764Z,100.00
2023-03-05T07:20:08.329Z,100.00
2023-03-05T07:25:11.476Z,100.00
2023-03-05T07:30:13.657Z,100.00
2023-03-05T07:35:15.573Z,100.00
2023-03-05T07:40:19.114Z,99.65
2023-03-05T07:45:20.802Z,100.00
2023-03-05T07:50:22.517Z,100.00
2023-03-05T07:55:25.562Z,99.56
2023-03-05T08:00:27.341Z,99.14
2023-03-05T08:05:29.038Z,99.11
2023-03-05T08:10:32.126Z,99.86
2023-03-05T08:15:33.912Z,100.00
2023-03-05T08:20:36.127Z,100.00
2023-03-05T08:25:39.204Z,100.00
2023-03-05T08:30:41.020Z,100.00
2023-03-05T08:35:42.805Z,100.00
2023-03-05T08:40:45.871Z,99.47
2023-03-05T08:45:49.522Z,100.00
2023-03-05T08:50:51.293Z,100.00
2023-03-05T08:55:57.837Z,98.56
2023-03-05T09:00:59.569Z,98.77
2023-03-05T09:06:01.440Z,98.64
2023-03-05T09:11:05.016Z,99.94
2023-03-05T09:16:07.892Z,98.29
2023-03-05T09:21:11.303Z,97.49
2023-03-05T09:26:15.596Z,99.20
2023-03-05T09:31:17.403Z,99.39
2023-03-05T09:36:20.571Z,100.00
2023-03-05T09:41:29.863Z,100.00
2023-03-05T09:46:38.938Z,100.00
2023-03-05T09:51:41.956Z,92.67
2023-03-05T09:56:45.790Z,84.14
2023-03-05T10:01:47.533Z,76.16
2023-03-05T10:06:50.431Z,70.20
2023-03-05T10:11:55.136Z,55.13
2023-03-05T10:17:34.420Z,48.02
2023-03-05T10:22:38.645Z,43.43
2023-03-05T10:27:48.264Z,39.05
2023-03-05T10:32:52.737Z,45.94
2023-03-05T10:38:05.338Z,53.55
2023-03-05T10:43:16.147Z,50.64
2023-03-05T10:48:25.655Z,43.49
2023-03-05T10:53:28.195Z,46.61
2023-03-05T10:58:31.404Z,45.66
2023-03-05T11:03:47.328Z,45.99
2023-03-05T11:08:49.039Z,46.10
2023-03-05T11:13:54.704Z,47.87
2023-03-05T11:19:20.681Z,55.01
2023-03-05T11:24:22.357Z,58.52
2023-03-05T11:29:26.105Z,61.12
2023-03-05T11:34:31.508Z,63.20
2023-03-05T11:39:35.232Z,71.05
2023-03-05T11:44:41.796Z,62.45
2023-03-05T11:49:44.784Z,71.36
2023-03-05T11:54:52.010Z,69.00
2023-03-05T11:59:55.552Z,69.69
2023-03-05T12:04:59.392Z,70.92
2023-03-05T12:10:01.903Z,70.70
2023-03-05T12:15:23.842Z,73.15
2023-03-05T12:20:27.870Z,75.22
2023-03-05T12:25:32.385Z,75.58
2023-03-05T12:30:54.841Z,79.00
2023-03-05T12:36:24.538Z,80.35
2023-03-05T12:41:34.368Z,81.07
2023-03-05T12:46:37.828Z,72.61
2023-03-05T12:51:39.767Z,72.64
2023-03-05T12:56:41.424Z,69.99
2023-03-05T13:01:45.792Z,67.39
2023-03-05T13:06:48.014Z,67.57
2023-03-05T13:11:51.962Z,67.41
2023-03-05T13:16:55.010Z,66.64
2023-03-05T13:22:00.163Z,68.81
2023-03-05T13:27:01.866Z,72.47
2023-03-05T13:32:19.393Z,73.96
2023-03-05T13:37:21.679Z,72.06
2023-03-05T13:42:23.962Z,72.52
2023-03-05T13:47:28.594Z,72.93
2023-03-05T13:52:31.573Z,72.40
2023-03-05T13:57:37.902Z,76.74
2023-03-05T14:02:41.966Z,76.69
2023-03-05T14:07:43.753Z,77.26
2023-03-05T14:12:45.661Z,76.98
2023-03-05T14:17:48.715Z,76.70
2023-03-05T14:22:51.287Z,77.33
2023-03-05T14:27:53.029Z,78.33
2023-03-05T14:32:56.348Z,77.23
2023-03-05T14:37:58.611Z,76.91
2023-03-05T14:43:00.670Z,75.26
2023-03-05T14:48:04.718Z,74.35
2023-03-05T14:53:07.955Z,72.11
2023-03-05T14:58:11.661Z,72.77
2023-03-05T15:03:16.111Z,73.49
2023-03-05T15:08:18.906Z,71.88
2023-03-05T15:13:20.833Z,73.08
2023-03-05T15:18:23.912Z,72.33
2023-03-05T15:23:25.742Z,73.34
2023-03-05T15:28:27.496Z,71.91
2023-03-05T15:33:30.737Z,74.53
2023-03-05T15:38:32.450Z,79.22
2023-03-05T15:43:34.304Z,81.32
2023-03-05T15:48:37.399Z,80.94
2023-03-05T15:53:39.100Z,81.40
2023-03-05T15:58:43.212Z,80.48
2023-03-05T16:03:46.284Z,81.00
2023-03-05T16:08:48.057Z,81.19
2023-03-05T16:13:50.436Z,81.79
2023-03-05T16:18:53.695Z,81.66
2023-03-05T16:23:55.383Z,80.87
2023-03-05T16:28:57.185Z,81.14
2023-03-05T16:34:00.270Z,80.17
2023-03-05T16:39:02.910Z,81.25
2023-03-05T16:44:05.024Z,81.86
2023-03-05T16:49:08.571Z,81.99
2023-03-05T16:54:10.354Z,82.91
2023-03-05T16:59:12.138Z,82.16
2023-03-05T17:04:15.195Z,82.55
2023-03-05T17:09:19.221Z,83.42
2023-03-05T17:14:20.918Z,86.80
2023-03-05T17:19:23.983Z,88.25
2023-03-05T17:24:25.758Z,88.31
2023-03-05T17:29:27.681Z,89.03
2023-03-05T17:34:36.516Z,88.83
2023-03-05T17:39:38.614Z,89.95
2023-03-05T17:44:40.299Z,89.31
2023-03-05T17:49:43.387Z,92.05
2023-03-05T17:54:45.034Z,88.95
2023-03-05T17:59:46.687Z,88.56
2023-03-05T18:04:52.016Z,87.92
2023-03-05T18:09:53.678Z,88.61
2023-03-05T18:14:55.405Z,88.74
2023-03-05T18:19:58.593Z,89.45
2023-03-05T18:25:00.359Z,89.74
2023-03-05T18:30:02.205Z,90.33
2023-03-05T18:35:06.032Z,90.51
2023-03-05T18:40:09.757Z,91.11
2023-03-05T18:45:12.495Z,91.60
2023-03-05T18:50:16.793Z,92.59
2023-03-05T18:55:19.746Z,92.36
2023-03-05T19:00:22.704Z,92.91
2023-03-05T19:05:28.524Z,93.22
2023-03-05T19:10:31.492Z,93.08
2023-03-05T19:15:33.257Z,92.97
2023-03-05T19:20:36.300Z,92.97
2023-03-05T19:25:40.019Z,93.06
2023-03-05T19:30:42.148Z,92.81
2023-03-05T19:35:45.789Z,93.40
2023-03-05T19:40:47.713Z,93.75
2023-03-05T19:45:49.466Z,93.59
2023-03-05T19:50:52.496Z,94.38
2023-03-05T19:55:54.200Z,94.08
2023-03-05T20:00:55.938Z,94.05
2023-03-05T20:05:58.968Z,94.10
2023-03-05T20:11:00.774Z,94.20
2023-03-05T20:16:02.813Z,93.89
2023-03-05T20:21:06.339Z,94.06
2023-03-05T20:26:08.057Z,93.29
2023-03-05T20:31:09.885Z,92.60
2023-03-05T20:36:13.129Z,91.79
2023-03-05T20:41:16.517Z,91.48
2023-03-05T20:46:19.243Z,90.67
2023-03-05T20:51:24.348Z,90.22
2023-03-05T20:56:29.139Z,89.97
2023-03-05T21:01:31.366Z,89.75
2023-03-05T21:06:34.625Z,90.22
2023-03-05T21:11:37.144Z,90.13
2023-03-05T21:16:39.028Z,89.64
2023-03-05T21:21:45.511Z,89.80
2023-03-05T21:26:47.360Z,89.26
2023-03-05T21:31:49.128Z,89.15
2023-03-05T21:36:52.309Z,89.62
2023-03-05T21:42:05.631Z,89.40
2023-03-05T21:47:07.409Z,89.21
2023-03-05T21:52:11.656Z,89.64
2023-03-05T21:57:14.686Z,89.52
2023-03-05T22:02:17.405Z,89.15
2023-03-05T22:07:19.314Z,89.07
2023-03-05T22:12:32.908Z,89.15
2023-03-05T22:17:34.665Z,89.26
2023-03-05T22:22:36.473Z,88.79
2023-03-05T22:27:39.789Z,89.07
2023-03-05T22:32:41.505Z,88.56
2023-03-05T22:37:43.388Z,88.40
2023-03-05T22:42:46.580Z,88.10
2023-03-05T22:47:48.946Z,88.50
2023-03-05T22:52:51.378Z,88.08
2023-03-05T22:57:54.511Z,87.63
2023-03-05T23:02:56.439Z,88.21
2023-03-05T23:07:58.174Z,88.02
2023-03-05T23:13:01.340Z,88.03
2023-03-05T23:18:03.305Z,88.34
2023-03-05T23:23:05.049Z,88.53
2023-03-05T23:28:08.101Z,88.04
2023-03-05T23:33:13.348Z,87.73
2023-03-05T23:38:15.125Z,88.27
2023-03-05T23:43:18.305Z,87.55
2023-03-05T23:48:20.185Z,87.67
2023-03-05T23:53:23.014Z,87.25
2023-03-05T23:58:26.005Z,87.39
